Time;durP1;ratioP1;P1;durP2;ratioP2;P2;SDS_P1;SDS_P2;PMS_P1;PMS_P2;Temp;Humidity;BMP_temperature;BMP_pressure;BME280_temperature;BME280_humidity;BME280_pressure;Samples;Min_cycle;Max_cycle;Signal;HPM_P1;HPM_P2
2023/03/11 00:02:09;;;;;;;1.60;1.20;;;3.60;70.40;;;;;;5042106;28;20212;-73
2023/03/11 00:04:34;;;;;;;1.50;1.30;;;3.60;70.10;;;;;;5044355;28;20423;-73
2023/03/11 00:07:00;;;;;;;2.50;1.63;;;3.50;70.70;;;;;;5045926;28;20557;-73
2023/03/11 00:09:25;;;;;;;2.40;1.80;;;3.50;71.00;;;;;;5036667;28;20219;-73
2023/03/11 00:11:51;;;;;;;3.50;1.60;;;3.50;71.30;;;;;;5048884;28;20181;-72
2023/03/11 00:14:16;;;;;;;4.70;1.97;;;3.50;71.30;;;;;;5048576;28;20268;-73
2023/03/11 00:16:42;;;;;;;1.87;1.33;;;3.50;71.40;;;;;;5047174;28;20195;-73
2023/03/11 00:19:09;;;;;;;2.47;1.40;;;3.50;71.70;;;;;;5026776;28;20331;-72
2023/03/11 00:21:35;;;;;;;1.80;1.50;;;3.40;72.00;;;;;;5047240;28;20181;-72
2023/03/11 00:24:02;;;;;;;1.50;1.30;;;3.50;72.10;;;;;;5047506;28;20581;-72
2023/03/11 00:26:28;;;;;;;2.77;1.20;;;3.50;72.30;;;;;;5043924;28;20263;-72
2023/03/11 00:28:54;;;;;;;2.33;1.60;;;3.40;72.00;;;;;;5045674;28;20510;-73
2023/03/11 00:31:20;;;;;;;2.70;1.30;;;3.30;72.40;;;;;;5046910;28;20659;-74
2023/03/11 00:33:46;;;;;;;3.42;1.65;;;3.30;72.70;;;;;;5048733;28;20539;-72
2023/03/11 00:36:27;;;;;;;2.97;1.33;;;3.30;73.00;;;;;;5043443;28;20267;-73
2023/03/11 00:38:53;;;;;;;4.70;3.10;;;3.30;73.20;;;;;;5044760;28;20214;-73
2023/03/11 00:41:19;;;;;;;1.60;1.20;;;3.30;73.50;;;;;;5044473;28;20435;-73
2023/03/11 00:43:45;;;;;;;2.33;1.50;;;3.30;73.60;;;;;;5045037;28;20427;-73
2023/03/11 00:46:10;;;;;;;2.40;1.43;;;3.20;73.60;;;;;;5042480;28;20648;-73
2023/03/11 00:48:36;;;;;;;2.13;1.70;;;3.20;73.60;;;;;;5025032;28;20374;-72
2023/03/11 00:51:02;;;;;;;2.97;1.67;;;3.40;74.00;;;;;;5047104;28;20199;-73
2023/03/11 00:53:28;;;;;;;3.07;1.93;;;3.40;73.90;;;;;;5045253;28;20711;-73
2023/03/11 00:55:53;;;;;;;3.20;1.70;;;3.40;73.70;;;;;;5024653;28;20996;-73
2023/03/11 00:58:21;;;;;;;2.57;1.70;;;3.40;73.70;;;;;;5041743;28;20534;-73
2023/03/11 01:00:47;;;;;;;3.47;1.80;;;3.30;74.00;;;;;;5045255;28;20717;-73
2023/03/11 01:03:13;;;;;;;4.57;1.80;;;3.30;74.00;;;;;;5050243;28;20494;-72
2023/03/11 01:05:39;;;;;;;3.90;1.83;;;3.30;74.20;;;;;;5043345;28;20431;-73
2023/03/11 01:08:05;;;;;;;1.57;1.50;;;3.30;74.20;;;;;;5041445;28;20216;-73
2023/03/11 01:10:32;;;;;;;2.83;1.87;;;3.40;74.20;;;;;;5043956;28;20419;-74
2023/03/11 01:12:57;;;;;;;4.00;2.20;;;3.40;74.00;;;;;;5050752;28;20969;-73
2023/03/11 01:15:33;;;;;;;3.63;2.63;;;3.40;74.30;;;;;;5050286;28;20431;-73
2023/03/11 01:17:59;;;;;;;4.67;2.40;;;3.40;74.60;;;;;;5043125;28;20219;-73
2023/03/11 01:20:25;;;;;;;4.00;2.20;;;3.40;74.60;;;;;;5043488;28;20435;-73
2023/03/11 01:22:51;;;;;;;3.00;2.13;;;3.40;74.80;;;;;;5044149;28;20937;-73
2023/03/11 01:25:21;;;;;;;4.20;2.20;;;3.40;74.60;;;;;;5049303;28;20273;-72
2023/03/11 01:27:46;;;;;;;2.57;1.90;;;3.40;74.60;;;;;;5047394;28;20208;-73
2023/03/11 01:30:16;;;;;;;2.70;2.10;;;3.30;74.50;;;;;;5048913;28;20865;-74
2023/03/11 01:32:42;;;;;;;6.30;2.30;;;3.20;74.60;;;;;;5031376;28;20191;-73
2023/03/11 01:35:12;;;;;;;3.30;1.80;;;3.20;74.30;;;;;;5046288;28;20415;-73
2023/03/11 01:37:37;;;;;;;3.27;1.83;;;3.20;73.60;;;;;;5028288;28;20427;-74
2023/03/11 01:40:03;;;;;;;2.20;1.77;;;3.10;73.60;;;;;;5047550;28;20541;-73
2023/03/11 01:42:29;;;;;;;2.77;2.10;;;3.00;73.50;;;;;;5048888;28;20288;-73
2023/03/11 01:44:54;;;;;;;8.13;2.03;;;3.00;73.70;;;;;;5046498;28;20978;-73
2023/03/11 01:47:33;;;;;;;2.17;2.00;;;2.90;73.60;;;;;;5044730;28;20561;-73
2023/03/11 01:50:00;;;;;;;2.80;1.80;;;2.90;73.70;;;;;;5044490;28;20184;-73
2023/03/11 01:52:25;;;;;;;5.27;2.20;;;2.90;74.00;;;;;;5043624;28;20426;-73
2023/03/11 01:54:51;;;;;;;4.33;1.90;;;2.90;74.00;;;;;;5047197;28;20801;-73
2023/03/11 01:57:17;;;;;;;5.10;2.90;;;2.80;74.00;;;;;;5046796;28;20295;-73
2023/03/11 01:59:49;;;;;;;5.90;1.80;;;2.80;74.30;;;;;;5041425;28;20243;-72
2023/03/11 02:02:22;;;;;;;4.57;2.20;;;2.80;74.20;;;;;;5042651;28;20522;-72
2023/03/11 02:04:48;;;;;;;2.70;1.90;;;2.70;74.50;;;;;;5044054;28;20921;-73
2023/03/11 02:07:14;;;;;;;3.63;2.10;;;2.70;74.50;;;;;;5039815;28;21045;-73
2023/03/11 02:09:40;;;;;;;2.60;1.77;;;2.70;74.50;;;;;;5038134;28;20570;-72
2023/03/11 02:12:09;;;;;;;3.37;2.03;;;2.70;74.60;;;;;;5049673;28;20429;-72
2023/03/11 02:14:37;;;;;;;3.30;2.37;;;2.80;74.50;;;;;;5032523;28;20269;-72
2023/03/11 02:17:03;;;;;;;3.77;2.17;;;2.80;74.50;;;;;;5048700;28;20423;-72
2023/03/11 02:19:50;;;;;;;6.80;2.63;;;2.80;74.50;;;;;;5046159;28;20498;-73
2023/03/11 02:22:16;;;;;;;4.07;2.07;;;2.70;74.60;;;;;;5051810;28;20212;-73
2023/03/11 02:25:00;;;;;;;6.97;1.90;;;2.70;74.80;;;;;;5052480;28;20455;-72
2023/03/11 02:27:27;;;;;;;2.58;1.63;;;2.70;74.80;;;;;;5048496;28;20208;-72
2023/03/11 02:29:55;;;;;;;3.25;2.00;;;2.50;74.20;;;;;;5045741;28;20232;-73
2023/03/11 02:32:21;;;;;;;3.05;1.98;;;2.50;74.30;;;;;;5052647;28;20187;-73
2023/03/11 02:34:47;;;;;;;2.83;2.03;;;2.50;73.60;;;;;;5033365;28;20684;-73
2023/03/11 02:37:16;;;;;;;3.80;2.20;;;2.40;73.50;;;;;;5050157;28;20431;-73
2023/03/11 02:39:47;;;;;;;3.63;1.70;;;2.30;73.50;;;;;;5044438;28;20285;-72
2023/03/11 02:42:22;;;;;;;3.00;2.00;;;2.40;73.50;;;;;;5047613;28;20184;-72
2023/03/11 02:45:07;;;;;;;2.88;1.70;;;2.30;73.20;;;;;;5048883;28;20426;-73
2023/03/11 02:47:34;;;;;;;3.58;1.60;;;2.30;73.20;;;;;;5048346;28;20227;-72
2023/03/11 02:50:00;;;;;;;3.17;2.00;;;2.20;73.00;;;;;;5045694;28;20188;-73
2023/03/11 02:52:28;;;;;;;5.53;1.70;;;2.10;72.90;;;;;;5042672;28;20177;-72
2023/03/11 02:54:53;;;;;;;2.55;1.70;;;2.10;73.20;;;;;;5043580;28;20561;-73
2023/03/11 02:57:19;;;;;;;4.20;1.97;;;2.10;73.30;;;;;;5042207;28;20185;-72
2023/03/11 02:59:44;;;;;;;2.53;2.00;;;2.10;73.30;;;;;;5046461;28;20291;-73
2023/03/11 03:02:10;;;;;;;2.43;1.63;;;2.10;73.50;;;;;;5052582;28;20189;-74
2023/03/11 03:04:36;;;;;;;6.20;1.53;;;2.00;73.50;;;;;;5034897;28;20187;-73
2023/03/11 03:07:01;;;;;;;3.13;1.73;;;1.90;73.50;;;;;;5052248;28;20208;-74
2023/03/11 03:09:27;;;;;;;3.87;1.27;;;1.90;73.20;;;;;;5047418;28;20243;-74
2023/03/11 03:11:52;;;;;;;2.43;1.80;;;1.80;73.20;;;;;;5051402;28;20185;-73
2023/03/11 03:14:18;;;;;;;3.10;1.30;;;1.80;73.20;;;;;;5052255;28;20192;-73
2023/03/11 03:16:43;;;;;;;4.23;1.50;;;1.80;73.30;;;;;;5052120;28;20187;-73
2023/03/11 03:19:09;;;;;;;3.00;1.60;;;1.80;73.30;;;;;;5042329;28;20213;-74
2023/03/11 03:21:35;;;;;;;3.67;1.70;;;1.80;73.30;;;;;;5047989;28;20202;-72
2023/03/11 03:24:00;;;;;;;5.87;1.90;;;1.80;73.50;;;;;;5050693;28;20181;-73
2023/03/11 03:26:26;;;;;;;2.73;1.80;;;1.90;73.50;;;;;;5049161;28;20557;-75
2023/03/11 03:28:52;;;;;;;4.07;1.43;;;1.80;73.60;;;;;;5048240;28;20212;-74
2023/03/11 03:31:18;;;;;;;2.13;1.60;;;1.70;73.50;;;;;;5052754;28;20279;-73
2023/03/11 03:33:44;;;;;;;3.47;1.73;;;1.70;73.50;;;;;;5055434;28;20713;-72
2023/03/11 03:36:12;;;;;;;3.40;1.80;;;1.70;73.60;;;;;;5046378;28;20272;-71
2023/03/11 03:38:38;;;;;;;2.75;2.47;;;1.70;73.60;;;;;;5045444;28;20212;-71
2023/03/11 03:41:04;;;;;;;3.40;1.50;;;1.60;73.70;;;;;;5051581;28;20198;-73
2023/03/11 03:43:29;;;;;;;3.43;1.77;;;1.60;73.90;;;;;;5045523;28;20556;-72
2023/03/11 03:45:57;;;;;;;3.03;1.40;;;1.60;74.00;;;;;;5051370;28;20185;-74
2023/03/11 03:48:22;;;;;;;2.63;1.70;;;1.60;74.00;;;;;;5030963;28;20235;-74
2023/03/11 03:50:48;;;;;;;2.20;1.63;;;1.60;74.00;;;;;;5048852;28;20181;-73
2023/03/11 03:53:14;;;;;;;3.60;1.60;;;1.60;74.00;;;;;;5049999;28;20184;-73
2023/03/11 03:55:39;;;;;;;2.23;1.70;;;1.60;74.00;;;;;;5050946;28;20184;-73
2023/03/11 03:58:05;;;;;;;4.23;1.50;;;1.50;74.00;;;;;;5048100;28;20308;-72
2023/03/11 04:00:30;;;;;;;5.13;1.60;;;1.50;74.20;;;;;;5049771;28;20624;-73
2023/03/11 04:02:56;;;;;;;3.10;1.40;;;1.50;74.50;;;;;;5052255;28;20666;-72
2023/03/11 04:05:25;;;;;;;3.63;1.50;;;1.40;74.30;;;;;;5050989;28;20192;-72
2023/03/11 04:07:51;;;;;;;4.35;1.70;;;1.40;74.60;;;;;;5045648;28;20222;-73
2023/03/11 04:10:17;;;;;;;3.97;1.43;;;1.40;74.50;;;;;;5050597;28;20196;-73
2023/03/11 04:12:42;;;;;;;6.20;1.70;;;1.40;74.80;;;;;;5047941;28;20926;-72
2023/03/11 04:15:09;;;;;;;3.10;1.93;;;1.40;74.60;;;;;;5044272;28;20188;-72
2023/03/11 04:17:35;;;;;;;5.03;1.50;;;1.40;74.60;;;;;;5046295;28;20177;-73
2023/03/11 04:20:00;;;;;;;3.53;1.90;;;1.50;74.80;;;;;;5043232;28;20276;-74
2023/03/11 04:22:26;;;;;;;2.90;1.43;;;1.40;74.80;;;;;;5045905;28;20296;-73
2023/03/11 04:24:52;;;;;;;3.93;1.47;;;1.40;75.10;;;;;;5045134;28;20235;-74
2023/03/11 04:27:17;;;;;;;2.10;1.60;;;1.40;75.20;;;;;;5030482;28;20429;-74
2023/03/11 04:29:43;;;;;;;3.40;1.53;;;1.30;75.20;;;;;;5044566;28;20204;-74
2023/03/11 04:32:08;;;;;;;3.13;1.47;;;1.30;75.40;;;;;;5047513;28;20742;-74
2023/03/11 04:34:34;;;;;;;11.50;2.27;;;1.30;75.70;;;;;;5049711;28;20662;-73
2023/03/11 04:36:59;;;;;;;3.53;1.93;;;1.40;75.50;;;;;;5049164;28;20263;-73
2023/03/11 04:39:25;;;;;;;4.83;1.87;;;1.40;75.70;;;;;;5045501;28;20228;-73
2023/03/11 04:41:50;;;;;;;3.47;1.30;;;1.30;75.70;;;;;;5052063;28;20672;-73
2023/03/11 04:44:16;;;;;;;5.60;1.40;;;1.20;75.80;;;;;;5049994;28;20185;-74
2023/03/11 04:46:42;;;;;;;3.77;1.50;;;1.20;75.90;;;;;;5052206;28;20290;-74
2023/03/11 04:49:09;;;;;;;4.80;1.90;;;1.20;76.10;;;;;;5048043;28;20766;-73
2023/03/11 04:51:34;;;;;;;3.65;2.13;;;1.10;76.20;;;;;;5053363;28;20188;-74
2023/03/11 04:54:00;;;;;;;5.40;2.00;;;1.20;76.20;;;;;;5050229;28;20180;-73
2023/03/11 04:56:25;;;;;;;3.73;1.57;;;1.10;76.20;;;;;;5052228;28;20185;-74
2023/03/11 04:58:51;;;;;;;2.83;1.73;;;1.10;76.40;;;;;;5048689;28;20255;-73
2023/03/11 05:01:17;;;;;;;3.77;1.83;;;1.00;76.50;;;;;;5045552;28;20185;-72
2023/03/11 05:03:42;;;;;;;2.17;1.50;;;1.00;76.50;;;;;;5050566;28;20185;-73
2023/03/11 05:06:08;;;;;;;2.83;1.93;;;1.00;76.50;;;;;;5050855;28;20330;-74
2023/03/11 05:08:34;;;;;;;7.23;2.00;;;1.00;76.70;;;;;;5053854;28;20231;-74
2023/03/11 05:10:59;;;;;;;3.60;1.60;;;1.00;76.70;;;;;;5054605;28;20191;-73
2023/03/11 05:13:25;;;;;;;5.13;2.03;;;1.00;76.70;;;;;;5038861;28;20451;-74
2023/03/11 05:15:51;;;;;;;5.07;2.03;;;1.00;76.70;;;;;;5060544;28;20187;-73
2023/03/11 05:18:16;;;;;;;3.37;1.77;;;1.10;76.50;;;;;;5047711;28;20208;-71
2023/03/11 05:20:42;;;;;;;7.07;1.63;;;1.10;76.40;;;;;;5046367;28;20188;-73
2023/03/11 05:23:08;;;;;;;3.67;1.70;;;1.10;76.50;;;;;;5042439;28;20193;-73
2023/03/11 05:25:34;;;;;;;2.90;1.80;;;1.00;76.20;;;;;;5045020;28;20189;-73
2023/03/11 05:28:00;;;;;;;5.40;2.15;;;1.00;76.40;;;;;;5041155;28;20566;-72
2023/03/11 05:30:25;;;;;;;3.40;1.40;;;0.90;76.40;;;;;;5032442;28;20621;-73
2023/03/11 05:32:51;;;;;;;5.13;1.80;;;1.00;76.50;;;;;;5049669;28;20176;-72
2023/03/11 05:35:17;;;;;;;4.63;2.13;;;0.90;76.70;;;;;;5055871;28;20193;-73
2023/03/11 05:37:42;;;;;;;3.57;1.83;;;1.00;76.70;;;;;;5051905;28;20192;-74
2023/03/11 05:40:11;;;;;;;4.93;1.80;;;1.00;76.50;;;;;;5049104;28;20211;-75
2023/03/11 05:42:36;;;;;;;4.43;1.45;;;1.00;76.50;;;;;;5051034;28;20322;-74
2023/03/11 05:45:02;;;;;;;5.00;1.50;;;1.00;76.50;;;;;;5050220;28;20233;-73
2023/03/11 05:47:28;;;;;;;3.20;1.70;;;1.00;76.40;;;;;;5052236;28;20208;-73
2023/03/11 05:49:54;;;;;;;3.77;1.60;;;0.90;76.40;;;;;;5048143;28;20523;-73
2023/03/11 05:52:20;;;;;;;5.68;1.70;;;0.80;76.50;;;;;;5049025;28;20187;-74
2023/03/11 05:54:49;;;;;;;3.20;1.53;;;0.70;76.50;;;;;;5030764;28;20260;-72
2023/03/11 05:57:14;;;;;;;3.92;1.95;;;0.70;76.80;;;;;;5049961;28;20191;-73
2023/03/11 05:59:40;;;;;;;3.97;1.90;;;0.70;76.80;;;;;;5045955;28;20216;-72
2023/03/11 06:02:06;;;;;;;5.17;1.87;;;0.70;76.80;;;;;;5048970;28;20275;-73
2023/03/11 06:04:31;;;;;;;3.00;1.70;;;0.70;76.80;;;;;;5050271;28;20212;-73
2023/03/11 06:06:57;;;;;;;3.30;1.93;;;0.80;76.80;;;;;;5045334;28;20698;-73
2023/03/11 06:09:22;;;;;;;4.73;1.87;;;0.80;76.70;;;;;;5046410;28;20287;-73
2023/03/11 06:11:48;;;;;;;4.00;1.70;;;0.80;76.80;;;;;;5049134;28;20186;-73
2023/03/11 06:14:14;;;;;;;2.50;1.83;;;0.80;76.80;;;;;;5043381;28;20673;-72
2023/03/11 06:16:40;;;;;;;2.27;1.70;;;0.80;76.80;;;;;;5047778;28;20607;-73
2023/03/11 06:19:06;;;;;;;4.45;1.83;;;0.80;76.70;;;;;;5049063;28;20287;-73
2023/03/11 06:21:32;;;;;;;3.70;1.70;;;0.80;76.70;;;;;;5050169;28;20267;-73
2023/03/11 06:23:58;;;;;;;4.63;1.80;;;0.90;76.70;;;;;;5052789;28;20205;-73
2023/03/11 06:26:24;;;;;;;4.87;1.60;;;0.90;76.50;;;;;;5048463;28;21010;-74
2023/03/11 06:28:51;;;;;;;11.73;2.33;;;1.00;76.50;;;;;;5049863;28;20216;-73
2023/03/11 06:31:19;;;;;;;7.95;2.35;;;1.00;76.70;;;;;;5040218;28;20435;-73
2023/03/11 06:33:46;;;;;;;4.50;1.58;;;1.00;76.10;;;;;;5059136;28;20207;-73
2023/03/11 06:36:14;;;;;;;4.47;2.00;;;1.00;76.20;;;;;;5054754;28;20193;-72
2023/03/11 06:38:39;;;;;;;5.47;1.73;;;1.10;76.40;;;;;;5053691;28;20303;-73
2023/03/11 06:41:06;;;;;;;3.27;1.70;;;1.10;76.40;;;;;;5037633;28;20271;-73
2023/03/11 06:43:33;;;;;;;2.55;1.50;;;1.20;76.10;;;;;;5047682;28;20185;-73
2023/03/11 06:45:59;;;;;;;4.03;1.83;;;1.20;75.70;;;;;;5036937;28;20196;-74
2023/03/11 06:48:27;;;;;;;6.30;1.98;;;1.30;75.70;;;;;;5051965;28;20228;-73
2023/03/11 06:50:54;;;;;;;4.80;1.50;;;1.30;75.50;;;;;;5057610;28;20264;-74
2023/03/11 06:53:21;;;;;;;4.55;2.05;;;1.30;75.50;;;;;;5055154;28;20190;-74
2023/03/11 06:56:07;;;;;;;3.95;1.85;;;1.30;75.50;;;;;;5055450;28;20196;-74
2023/03/11 06:58:34;;;;;;;2.65;1.65;;;1.30;75.10;;;;;;5047273;28;20216;-74
2023/03/11 07:01:05;;;;;;;3.92;1.90;;;1.20;75.40;;;;;;5050445;28;20242;-73
2023/03/11 07:03:30;;;;;;;2.25;1.38;;;1.20;75.40;;;;;;5048931;28;20243;-75
2023/03/11 07:05:57;;;;;;;2.50;1.80;;;1.30;75.20;;;;;;5053979;28;20192;-73
2023/03/11 07:08:23;;;;;;;2.55;1.35;;;1.30;75.20;;;;;;5032306;28;20301;-73
2023/03/11 07:11:09;;;;;;;3.28;1.70;;;1.30;75.20;;;;;;5048580;28;20623;-73
2023/03/11 07:13:35;;;;;;;5.68;2.03;;;1.40;75.10;;;;;;5051244;28;20193;-74
2023/03/11 07:16:07;;;;;;;5.38;2.15;;;1.40;74.80;;;;;;5054293;28;20185;-74
2023/03/11 07:18:34;;;;;;;2.97;1.50;;;1.50;74.60;;;;;;5031140;28;20633;-73
2023/03/11 07:21:04;;;;;;;3.73;1.53;;;1.50;74.50;;;;;;5048935;28;20414;-73
2023/03/11 07:23:31;;;;;;;5.80;1.83;;;1.50;74.50;;;;;;5048570;28;20416;-74
2023/03/11 07:25:56;;;;;;;8.73;1.83;;;1.50;74.50;;;;;;5049735;28;20435;-73
2023/03/11 07:28:24;;;;;;;2.77;1.50;;;1.60;74.60;;;;;;5049636;28;20217;-74
2023/03/11 07:30:50;;;;;;;4.90;2.00;;;1.50;74.00;;;;;;5052881;28;20189;-74
2023/03/11 07:33:15;;;;;;;4.10;1.70;;;1.40;74.30;;;;;;5050166;28;20239;-74
2023/03/11 07:35:41;;;;;;;4.80;1.63;;;1.40;74.20;;;;;;5036202;28;20455;-74
2023/03/11 07:38:07;;;;;;;7.00;1.87;;;1.40;74.30;;;;;;5053723;28;20200;-73
2023/03/11 07:40:33;;;;;;;3.43;1.60;;;1.40;74.20;;;;;;5056330;28;20446;-73
2023/03/11 07:42:59;;;;;;;3.75;1.60;;;1.50;74.20;;;;;;5053406;28;20193;-73
2023/03/11 07:45:24;;;;;;;7.27;2.30;;;1.50;74.20;;;;;;5031690;28;20190;-73
2023/03/11 07:47:50;;;;;;;5.83;1.70;;;1.60;74.20;;;;;;5049123;28;20679;-73
2023/03/11 07:50:16;;;;;;;6.30;1.80;;;1.70;73.70;;;;;;5052233;28;20249;-73
2023/03/11 07:52:42;;;;;;;3.57;1.87;;;1.70;73.70;;;;;;5052898;28;20184;-74
2023/03/11 07:55:08;;;;;;;6.07;1.98;;;1.70;73.70;;;;;;5050656;28;20411;-74
2023/03/11 07:57:34;;;;;;;2.67;1.50;;;1.80;73.90;;;;;;5055869;28;20681;-73
2023/03/11 07:59:59;;;;;;;3.40;1.70;;;1.70;73.50;;;;;;5044021;28;20187;-74
2023/03/11 08:02:25;;;;;;;4.60;1.90;;;1.80;73.60;;;;;;5056699;28;20189;-74
2023/03/11 08:04:51;;;;;;;3.73;1.63;;;1.80;73.30;;;;;;5046695;28;20184;-74
2023/03/11 08:07:16;;;;;;;4.70;2.27;;;1.80;73.20;;;;;;5060088;28;21054;-74
2023/03/11 08:09:42;;;;;;;7.90;2.30;;;1.90;73.20;;;;;;5052508;28;20346;-74
2023/03/11 08:12:08;;;;;;;4.30;1.73;;;2.00;73.00;;;;;;5053932;28;20186;-73
2023/03/11 08:14:34;;;;;;;5.10;1.63;;;2.00;73.20;;;;;;5036011;28;20184;-74
2023/03/11 08:16:59;;;;;;;8.20;1.90;;;2.20;72.70;;;;;;5051321;28;20189;-74
2023/03/11 08:19:25;;;;;;;8.93;2.37;;;2.20;72.90;;;;;;5048323;28;20224;-74
2023/03/11 08:21:50;;;;;;;5.33;1.80;;;2.30;72.00;;;;;;5049119;28;20193;-74
2023/03/11 08:24:16;;;;;;;3.30;2.07;;;2.20;71.70;;;;;;5031761;28;20185;-74
2023/03/11 08:26:42;;;;;;;4.23;1.80;;;2.20;71.80;;;;;;5052344;28;20184;-74
2023/03/11 08:29:07;;;;;;;6.43;1.77;;;2.20;72.60;;;;;;5038253;28;20224;-74
2023/03/11 08:31:36;;;;;;;4.40;1.90;;;2.30;72.30;;;;;;5043800;28;20184;-74
2023/03/11 08:34:07;;;;;;;5.30;1.80;;;2.30;72.10;;;;;;5058588;28;20437;-74
2023/03/11 08:36:33;;;;;;;6.20;1.73;;;2.30;71.80;;;;;;5052396;28;20779;-73
2023/03/11 08:38:59;;;;;;;3.00;1.83;;;2.40;71.10;;;;;;5050601;28;20319;-73
2023/03/11 08:41:25;;;;;;;4.10;1.80;;;2.40;71.40;;;;;;5057973;28;20257;-73
2023/03/11 08:43:51;;;;;;;2.60;1.67;;;2.40;71.30;;;;;;5055124;28;20188;-73
2023/03/11 08:46:27;;;;;;;3.43;1.70;;;2.40;71.10;;;;;;5034645;28;20964;-74
2023/03/11 08:48:53;;;;;;;3.70;1.87;;;2.40;71.30;;;;;;5042845;28;20264;-73
2023/03/11 08:51:19;;;;;;;7.00;2.30;;;2.50;71.30;;;;;;5052026;28;20430;-73
2023/03/11 08:53:46;;;;;;;5.63;1.70;;;2.40;70.80;;;;;;5046891;28;20415;-73
2023/03/11 08:56:12;;;;;;;3.63;1.60;;;2.50;70.80;;;;;;5050530;28;20720;-74
2023/03/11 08:58:37;;;;;;;2.90;1.73;;;2.60;70.80;;;;;;5051160;28;20287;-74
2023/03/11 09:01:04;;;;;;;5.90;1.77;;;2.60;70.50;;;;;;5048203;28;20446;-74
2023/03/11 09:03:31;;;;;;;5.10;1.67;;;2.70;70.40;;;;;;5050113;28;20661;-74
2023/03/11 09:06:02;;;;;;;3.90;1.73;;;2.80;70.80;;;;;;5051648;28;20433;-76
2023/03/11 09:08:28;;;;;;;3.70;2.07;;;2.90;70.20;;;;;;5044059;28;20486;-74
2023/03/11 09:10:54;;;;;;;10.27;2.00;;;2.80;69.90;;;;;;5048402;28;20422;-73
2023/03/11 09:13:20;;;;;;;5.20;2.40;;;2.70;69.80;;;;;;5045626;28;20917;-75
2023/03/11 09:15:47;;;;;;;9.93;2.67;;;2.80;70.50;;;;;;5047140;28;20246;-74
2023/03/11 09:18:14;;;;;;;6.23;1.70;;;2.90;69.40;;;;;;5042220;28;20208;-73
2023/03/11 09:20:40;;;;;;;4.33;2.07;;;2.80;69.20;;;;;;5045511;28;20430;-74
2023/03/11 09:23:06;;;;;;;3.60;2.00;;;2.70;70.10;;;;;;5049200;28;20435;-76
2023/03/11 09:25:32;;;;;;;7.10;1.80;;;2.90;70.70;;;;;;5051080;28;20844;-73
2023/03/11 09:27:57;;;;;;;3.70;1.67;;;3.00;69.80;;;;;;5042496;28;20478;-74
2023/03/11 09:30:23;;;;;;;4.63;1.70;;;3.30;69.40;;;;;;5049282;28;20203;-74
2023/03/11 09:32:49;;;;;;;4.10;1.83;;;3.40;67.30;;;;;;5048990;28;20563;-73
2023/03/11 09:35:14;;;;;;;2.67;1.53;;;3.30;67.70;;;;;;5044485;28;20189;-74
2023/03/11 09:37:40;;;;;;;3.80;2.10;;;3.30;67.90;;;;;;5048617;28;20192;-75
2023/03/11 09:40:06;;;;;;;5.50;1.70;;;3.40;68.60;;;;;;5042368;28;20766;-73
2023/03/11 09:43:07;;;;;;;2.20;1.40;;;3.60;67.70;;;;;;5037548;28;20195;-74
2023/03/11 09:45:39;;;;;;;4.07;1.47;;;3.50;64.70;;;;;;5019272;28;20509;-73
2023/03/11 09:48:17;;;;;;;2.20;1.40;;;3.40;64.70;;;;;;5047030;28;20625;-74
2023/03/11 09:50:46;;;;;;;3.60;1.37;;;3.30;64.20;;;;;;5031631;28;20434;-74
2023/03/11 09:53:25;;;;;;;4.50;1.50;;;3.30;64.20;;;;;;5049404;28;20486;-74
2023/03/11 09:55:57;;;;;;;7.40;1.90;;;3.30;63.50;;;;;;5049921;28;20437;-74
2023/03/11 09:58:43;;;;;;;2.17;1.30;;;3.40;63.90;;;;;;5044039;28;20471;-74
2023/03/11 10:01:26;;;;;;;1.57;1.13;;;3.50;64.10;;;;;;5048052;28;20434;-73
2023/03/11 10:03:55;;;;;;;3.23;1.30;;;3.70;59.60;;;;;;5043482;28;20467;-73
2023/03/11 10:06:28;;;;;;;6.23;1.60;;;4.00;59.60;;;;;;5052087;28;20503;-74
2023/03/11 10:09:03;;;;;;;3.00;1.30;;;4.30;60.70;;;;;;5039577;28;20504;-73
2023/03/11 10:11:45;;;;;;;3.40;1.60;;;4.60;60.30;;;;;;5033760;28;20546;-72
2023/03/11 10:14:46;;;;;;;3.00;1.80;;;4.70;59.20;;;;;;5032502;28;20427;-72
2023/03/11 10:17:30;;;;;;;2.73;1.30;;;4.80;58.10;;;;;;5007780;28;20427;-73
2023/03/11 10:20:23;;;;;;;2.33;1.30;;;4.80;58.40;;;;;;5044206;28;20458;-73
2023/03/11 10:23:33;;;;;;;4.33;1.80;;;4.70;57.70;;;;;;5038622;28;20514;-73
2023/03/11 10:26:20;;;;;;;2.20;1.40;;;4.30;58.50;;;;;;5048318;28;20419;-73
2023/03/11 10:28:52;;;;;;;5.20;1.60;;;4.00;57.80;;;;;;5044020;28;20561;-73
2023/03/11 10:31:25;;;;;;;1.30;1.23;;;3.90;57.30;;;;;;5034764;28;20905;-73
2023/03/11 10:33:56;;;;;;;1.90;1.50;;;4.00;58.50;;;;;;5049508;28;20431;-74
2023/03/11 10:36:50;;;;;;;3.80;1.23;;;4.10;58.40;;;;;;5047604;28;20798;-71
2023/03/11 10:39:16;;;;;;;2.80;1.33;;;4.10;56.90;;;;;;5024589;28;20569;-73
2023/03/11 10:41:54;;;;;;;2.50;1.60;;;4.20;58.00;;;;;;5029620;28;20519;-71
2023/03/11 10:44:28;;;;;;;1.90;1.20;;;4.40;57.00;;;;;;5044346;28;20435;-71
2023/03/11 10:46:53;;;;;;;2.93;1.60;;;4.80;56.50;;;;;;5046464;28;20837;-71
2023/03/11 10:49:19;;;;;;;1.80;1.40;;;5.30;54.40;;;;;;5043764;28;20475;-71
2023/03/11 10:51:47;;;;;;;2.23;1.10;;;5.80;52.10;;;;;;5050372;28;20563;-72
2023/03/11 10:54:26;;;;;;;5.43;1.30;;;6.20;50.70;;;;;;5048836;28;20185;-75
2023/03/11 10:57:30;;;;;;;2.43;1.30;;;6.50;49.50;;;;;;5049003;28;21005;-72
2023/03/11 10:59:58;;;;;;;2.90;1.40;;;6.90;49.00;;;;;;5037617;28;20845;-72
2023/03/11 11:02:37;;;;;;;3.57;1.50;;;6.80;49.90;;;;;;5028793;28;20581;-73
2023/03/11 11:05:06;;;;;;;2.53;1.40;;;6.90;49.50;;;;;;5043502;28;21031;-74
2023/03/11 11:07:40;;;;;;;2.20;1.20;;;6.90;49.10;;;;;;5046722;28;20469;-73
2023/03/11 11:10:12;;;;;;;3.33;1.10;;;6.60;49.80;;;;;;5037711;28;20438;-74
2023/03/11 11:13:02;;;;;;;5.03;1.23;;;6.40;49.90;;;;;;5043087;28;20510;-74
2023/03/11 11:15:34;;;;;;;9.80;1.43;;;6.40;50.50;;;;;;5038393;28;20442;-73
2023/03/11 11:18:05;;;;;;;4.23;1.60;;;6.80;50.70;;;;;;5033855;28;20439;-73
2023/03/11 11:20:32;;;;;;;4.80;1.33;;;7.30;47.90;;;;;;5045483;28;20941;-72
2023/03/11 11:23:01;;;;;;;2.27;1.50;;;7.70;47.70;;;;;;5042541;28;20461;-72
2023/03/11 11:25:34;;;;;;;7.53;2.00;;;8.30;46.50;;;;;;5050283;28;20427;-74
2023/03/11 11:28:19;;;;;;;3.80;1.50;;;8.50;44.60;;;;;;5046855;28;20470;-72
2023/03/11 11:31:00;;;;;;;2.40;1.13;;;8.80;44.50;;;;;;5031317;28;20426;-72
2023/03/11 11:33:32;;;;;;;2.43;1.50;;;9.00;43.80;;;;;;5049504;28;20517;-74
2023/03/11 11:36:03;;;;;;;5.67;1.27;;;8.80;42.60;;;;;;5043788;28;20418;-74
2023/03/11 11:38:30;;;;;;;2.07;1.07;;;9.40;42.30;;;;;;5043024;28;20467;-72
2023/03/11 11:41:00;;;;;;;1.80;1.10;;;9.70;41.50;;;;;;5049853;28;20475;-74
2023/03/11 11:43:55;;;;;;;2.23;1.30;;;9.30;40.70;;;;;;5030582;28;20426;-73
2023/03/11 11:46:35;;;;;;;2.20;1.30;;;8.80;42.30;;;;;;5046607;28;21098;-73
2023/03/11 11:49:15;;;;;;;4.10;1.40;;;7.90;43.50;;;;;;5044245;28;20520;-72
2023/03/11 11:51:49;;;;;;;2.10;1.40;;;7.20;45.30;;;;;;5044014;28;20419;-72
2023/03/11 11:54:38;;;;;;;5.80;1.53;;;6.50;47.50;;;;;;5049434;28;20418;-72
2023/03/11 11:57:14;;;;;;;2.77;1.40;;;6.40;48.50;;;;;;5050438;28;20423;-73
2023/03/11 11:59:40;;;;;;;6.40;1.67;;;6.40;49.00;;;;;;5047559;28;20474;-73
2023/03/11 12:02:16;;;;;;;2.13;1.37;;;6.00;49.40;;;;;;5052449;28;20444;-74
2023/03/11 12:04:59;;;;;;;4.00;1.27;;;5.90;49.70;;;;;;5025779;28;20423;-73
2023/03/11 12:07:51;;;;;;;3.40;1.40;;;5.80;49.50;;;;;;5045832;28;21961;-73
2023/03/11 12:10:20;;;;;;;1.67;1.27;;;5.80;50.50;;;;;;5032242;28;20473;-72
2023/03/11 12:13:14;;;;;;;4.90;1.53;;;6.00;50.90;;;;;;5048608;28;21317;-73
2023/03/11 12:15:48;;;;;;;2.03;1.10;;;6.10;50.20;;;;;;5049978;28;20445;-74
2023/03/11 12:18:38;;;;;;;3.00;1.50;;;5.80;50.50;;;;;;5047495;28;20467;-73
2023/03/11 12:21:22;;;;;;;1.77;1.20;;;5.70;50.70;;;;;;5048592;28;20435;-73
2023/03/11 12:23:50;;;;;;;6.80;1.50;;;5.80;51.00;;;;;;5046514;28;20918;-74
2023/03/11 12:26:26;;;;;;;2.10;1.60;;;5.90;51.30;;;;;;5051277;28;20431;-74
2023/03/11 12:28:57;;;;;;;3.30;1.77;;;6.10;50.60;;;;;;5045174;28;20478;-73
2023/03/11 12:31:26;;;;;;;3.33;1.30;;;6.10;50.10;;;;;;5045433;28;20472;-73
2023/03/11 12:34:01;;;;;;;4.60;1.93;;;6.10;50.20;;;;;;5029713;28;20941;-74
2023/03/11 12:36:37;;;;;;;2.73;1.73;;;6.00;50.20;;;;;;5050687;28;20464;-74
2023/03/11 12:39:19;;;;;;;2.20;1.40;;;5.70;50.20;;;;;;5046161;28;20474;-72
2023/03/11 12:41:45;;;;;;;7.43;3.50;;;5.60;51.20;;;;;;5033771;28;20427;-72
2023/03/11 12:44:27;;;;;;;4.17;1.50;;;5.70;51.40;;;;;;5051228;28;20796;-72
2023/03/11 12:46:53;;;;;;;4.27;1.90;;;5.60;51.20;;;;;;5044219;28;20267;-73
2023/03/11 12:49:22;;;;;;;3.87;1.73;;;5.80;50.70;;;;;;5045355;28;20606;-72
2023/03/11 12:52:12;;;;;;;3.87;2.03;;;5.90;51.20;;;;;;5047357;28;20188;-74
2023/03/11 12:54:41;;;;;;;2.93;1.53;;;6.00;50.90;;;;;;5036638;28;20446;-73
2023/03/11 12:57:16;;;;;;;3.63;1.40;;;6.10;50.20;;;;;;5051694;28;20786;-72
2023/03/11 12:59:41;;;;;;;2.80;1.43;;;6.00;50.10;;;;;;5027260;28;20777;-74
2023/03/11 13:02:35;;;;;;;2.90;2.07;;;6.10;49.80;;;;;;5043210;28;20419;-74
2023/03/11 13:05:16;;;;;;;9.90;2.20;;;6.20;49.50;;;;;;5041092;28;20184;-73
2023/03/11 13:07:51;;;;;;;3.50;1.53;;;6.30;48.60;;;;;;5045016;28;21046;-75
2023/03/11 13:10:38;;;;;;;3.30;1.70;;;6.40;49.30;;;;;;5043490;28;20432;-73